sensor_id;sensor_type;location;lat;lon;timestamp;pressure;altitude;pressure_sealevel;temperature;humidity
3464;BME280;3551;41.578;24.706;2023-05-27T05:54:18;91161.69;;;15.59;99.99
3464;BME280;3551;41.578;24.706;2023-05-27T05:56:45;91161.53;;;15.66;99.51
3464;BME280;3551;41.578;24.706;2023-05-27T05:59:12;91170.63;;;15.72;99.31
3464;BME280;3551;41.578;24.706;2023-05-27T06:01:38;91162.09;;;15.74;99.26
3464;BME280;3551;41.578;24.706;2023-05-27T06:04:05;91165.47;;;15.78;99.26
3464;BME280;3551;41.578;24.706;2023-05-27T06:06:32;91166.28;;;15.91;98.35
3464;BME280;3551;41.578;24.706;2023-05-27T06:08:59;91164.56;;;15.97;98.51
3464;BME280;3551;41.578;24.706;2023-05-27T06:11:27;91169.13;;;16.00;98.37
3464;BME280;3551;41.578;24.706;2023-05-27T06:13:54;91166.16;;;16.11;97.84
3464;BME280;3551;41.578;24.706;2023-05-27T06:16:20;91165.44;;;16.23;98.49
3464;BME280;3551;41.578;24.706;2023-05-27T06:18:47;91160.94;;;16.32;98.88
3464;BME280;3551;41.578;24.706;2023-05-27T06:21:14;91169.28;;;16.38;98.23
3464;BME280;3551;41.578;24.706;2023-05-27T06:23:40;91163.13;;;16.38;98.16
3464;BME280;3551;41.578;24.706;2023-05-27T06:26:07;91163.78;;;16.42;97.52
3464;BME280;3551;41.578;24.706;2023-05-27T06:28:35;91168.25;;;16.48;96.68
3464;BME280;3551;41.578;24.706;2023-05-27T06:31:02;91166.13;;;16.56;95.26
3464;BME280;3551;41.578;24.706;2023-05-27T06:33:29;91175.22;;;16.62;95.18
3464;BME280;3551;41.578;24.706;2023-05-27T06:35:55;91154.72;;;16.77;94.21
3464;BME280;3551;41.578;24.706;2023-05-27T06:38:22;91162.88;;;17.15;91.22
3464;BME280;3551;41.578;24.706;2023-05-27T06:40:49;91176.16;;;17.47;74.80
3464;BME280;3551;41.578;24.706;2023-05-27T06:43:16;91175.06;;;18.17;74.12
3464;BME280;3551;41.578;24.706;2023-05-27T06:45:44;91169.63;;;18.29;70.37
3464;BME280;3551;41.578;24.706;2023-05-27T06:48:11;91172.31;;;18.64;70.01
3464;BME280;3551;41.578;24.706;2023-05-27T06:50:37;91170.69;;;18.66;69.48
3464;BME280;3551;41.578;24.706;2023-05-27T06:53:04;91167.34;;;18.28;69.17
3464;BME280;3551;41.578;24.706;2023-05-27T06:55:31;91171.94;;;17.71;68.37
3464;BME280;3551;41.578;24.706;2023-05-27T06:57:57;91170.97;;;17.65;70.18
3464;BME280;3551;41.578;24.706;2023-05-27T07:00:25;91174.75;;;17.30;70.18
3464;BME280;3551;41.578;24.706;2023-05-27T07:02:53;91169.22;;;17.08;72.56
3464;BME280;3551;41.578;24.706;2023-05-27T07:05:20;91173.34;;;17.00;72.46
3464;BME280;3551;41.578;24.706;2023-05-27T07:07:47;91171.28;;;17.17;73.23
3464;BME280;3551;41.578;24.706;2023-05-27T07:10:13;91178.84;;;16.97;73.06
3464;BME280;3551;41.578;24.706;2023-05-27T07:12:40;91185.50;;;16.79;75.95
3464;BME280;3551;41.578;24.706;2023-05-27T07:15:07;91182.34;;;16.68;78.49
3464;BME280;3551;41.578;24.706;2023-05-27T07:17:34;91192.44;;;16.93;80.04
3464;BME280;3551;41.578;24.706;2023-05-27T07:20:02;91188.31;;;16.47;85.42
3464;BME280;3551;41.578;24.706;2023-05-27T07:22:29;91188.31;;;16.47;90.72
3464;BME280;3551;41.578;24.706;2023-05-27T07:24:56;91196.63;;;16.53;92.48
3464;BME280;3551;41.578;24.706;2023-05-27T07:27:23;91198.44;;;16.59;93.04
3464;BME280;3551;41.578;24.706;2023-05-27T07:29:50;91202.75;;;16.41;93.17
3464;BME280;3551;41.578;24.706;2023-05-27T07:32:16;91192.38;;;16.39;94.31
3464;BME280;3551;41.578;24.706;2023-05-27T07:34:43;91199.88;;;16.19;93.31
3464;BME280;3551;41.578;24.706;2023-05-27T07:37:12;91205.97;;;15.91;87.66
3464;BME280;3551;41.578;24.706;2023-05-27T07:39:38;91215.69;;;15.72;95.00
3464;BME280;3551;41.578;24.706;2023-05-27T07:42:05;91216.25;;;15.96;93.78
3464;BME280;3551;41.578;24.706;2023-05-27T07:44:32;91206.34;;;15.60;92.77
3464;BME280;3551;41.578;24.706;2023-05-27T07:46:59;91207.03;;;15.45;93.53
3464;BME280;3551;41.578;24.706;2023-05-27T07:49:26;91208.00;;;15.70;96.04
3464;BME280;3551;41.578;24.706;2023-05-27T07:51:53;91214.06;;;15.91;94.92
3464;BME280;3551;41.578;24.706;2023-05-27T07:54:21;91207.84;;;15.77;92.60
3464;BME280;3551;41.578;24.706;2023-05-27T07:56:48;91217.59;;;16.04;93.69
3464;BME280;3551;41.578;24.706;2023-05-27T07:59:15;91211.88;;;15.86;90.97
3464;BME280;3551;41.578;24.706;2023-05-27T08:01:41;91209.06;;;16.05;91.65
3464;BME280;3551;41.578;24.706;2023-05-27T08:04:08;91211.31;;;16.23;91.50
3464;BME280;3551;41.578;24.706;2023-05-27T08:06:35;91209.97;;;16.31;89.44
3464;BME280;3551;41.578;24.706;2023-05-27T08:09:02;91202.66;;;16.44;91.75
3464;BME280;3551;41.578;24.706;2023-05-27T08:11:30;91211.28;;;16.68;91.51
3464;BME280;3551;41.578;24.706;2023-05-27T08:13:57;91208.28;;;16.78;91.06
3464;BME280;3551;41.578;24.706;2023-05-27T08:16:24;91215.03;;;16.86;91.00
3464;BME280;3551;41.578;24.706;2023-05-27T08:18:51;91214.31;;;17.11;88.90
3464;BME280;3551;41.578;24.706;2023-05-27T08:21:18;91215.94;;;17.09;87.32
3464;BME280;3551;41.578;24.706;2023-05-27T08:23:45;91219.63;;;17.15;88.83
3464;BME280;3551;41.578;24.706;2023-05-27T08:26:11;91213.25;;;17.21;86.31
3464;BME280;3551;41.578;24.706;2023-05-27T08:28:39;91215.63;;;17.44;87.13
3464;BME280;3551;41.578;24.706;2023-05-27T08:31:06;91227.56;;;17.60;87.67
3464;BME280;3551;41.578;24.706;2023-05-27T08:33:33;91224.81;;;17.34;81.86
3464;BME280;3551;41.578;24.706;2023-05-27T08:35:59;91224.47;;;17.20;82.27
3464;BME280;3551;41.578;24.706;2023-05-27T08:38:26;91230.59;;;16.95;78.77
3464;BME280;3551;41.578;24.706;2023-05-27T08:40:53;91226.19;;;17.01;81.13
3464;BME280;3551;41.578;24.706;2023-05-27T08:43:19;91229.13;;;17.07;77.72
3464;BME280;3551;41.578;24.706;2023-05-27T08:45:49;91225.72;;;16.90;78.79
3464;BME280;3551;41.578;24.706;2023-05-27T08:48:16;91226.84;;;17.18;79.88
3464;BME280;3551;41.578;24.706;2023-05-27T08:50:43;91219.84;;;17.33;78.09
3464;BME280;3551;41.578;24.706;2023-05-27T08:53:10;91222.91;;;17.60;78.15
3464;BME280;3551;41.578;24.706;2023-05-27T08:55:37;91218.25;;;17.73;79.82
3464;BME280;3551;41.578;24.706;2023-05-27T08:58:05;91216.19;;;17.65;72.43
3464;BME280;3551;41.578;24.706;2023-05-27T09:00:33;91215.75;;;17.91;74.71
3464;BME280;3551;41.578;24.706;2023-05-27T09:03:01;91219.56;;;18.16;75.42
3464;BME280;3551;41.578;24.706;2023-05-27T09:05:28;91217.50;;;18.32;73.23
3464;BME280;3551;41.578;24.706;2023-05-27T09:07:55;91205.03;;;18.35;70.55
3464;BME280;3551;41.578;24.706;2023-05-27T09:10:22;91204.19;;;18.60;70.31
3464;BME280;3551;41.578;24.706;2023-05-27T09:12:49;91203.75;;;18.61;74.38
3464;BME280;3551;41.578;24.706;2023-05-27T09:15:16;91200.59;;;18.63;69.35
3464;BME280;3551;41.578;24.706;2023-05-27T09:17:45;91200.97;;;18.52;66.11
3464;BME280;3551;41.578;24.706;2023-05-27T09:20:13;91200.09;;;18.55;67.62
3464;BME280;3551;41.578;24.706;2023-05-27T09:22:40;91193.81;;;18.45;66.55
3464;BME280;3551;41.578;24.706;2023-05-27T09:25:07;91193.19;;;18.76;65.36
3464;BME280;3551;41.578;24.706;2023-05-27T09:27:34;91197.81;;;18.53;64.20
3464;BME280;3551;41.578;24.706;2023-05-27T09:30:08;91189.84;;;18.50;64.96
3464;BME280;3551;41.578;24.706;2023-05-27T09:32:35;91199.16;;;18.71;68.08
3464;BME280;3551;41.578;24.706;2023-05-27T09:35:01;91191.53;;;18.78;68.11
3464;BME280;3551;41.578;24.706;2023-05-27T09:37:31;91195.84;;;18.97;64.86
3464;BME280;3551;41.578;24.706;2023-05-27T09:39:58;91197.00;;;18.66;67.17
3464;BME280;3551;41.578;24.706;2023-05-27T09:42:25;91188.50;;;18.54;65.88
3464;BME280;3551;41.578;24.706;2023-05-27T09:44:53;91196.81;;;18.82;68.07
3464;BME280;3551;41.578;24.706;2023-05-27T09:47:20;91205.06;;;18.78;65.70
3464;BME280;3551;41.578;24.706;2023-05-27T09:49:48;91209.22;;;18.48;71.54
3464;BME280;3551;41.578;24.706;2023-05-27T09:52:16;91209.66;;;18.34;70.16
3464;BME280;3551;41.578;24.706;2023-05-27T09:54:47;91212.78;;;17.98;67.01
3464;BME280;3551;41.578;24.706;2023-05-27T09:57:14;91212.47;;;17.96;69.38
3464;BME280;3551;41.578;24.706;2023-05-27T09:59:41;91207.72;;;17.88;68.23
3464;BME280;3551;41.578;24.706;2023-05-27T10:02:09;91210.00;;;17.26;71.55
3464;BME280;3551;41.578;24.706;2023-05-27T10:04:40;91217.66;;;17.28;71.96
3464;BME280;3551;41.578;24.706;2023-05-27T10:07:07;91210.44;;;17.25;71.47
3464;BME280;3551;41.578;24.706;2023-05-27T10:09:34;91215.75;;;17.41;73.64
3464;BME280;3551;41.578;24.706;2023-05-27T10:12:02;91213.03;;;17.28;71.57
3464;BME280;3551;41.578;24.706;2023-05-27T10:14:30;91214.44;;;17.33;71.40
3464;BME280;3551;41.578;24.706;2023-05-27T10:16:57;91214.69;;;17.64;72.83
3464;BME280;3551;41.578;24.706;2023-05-27T10:19:24;91209.56;;;17.91;69.89
3464;BME280;3551;41.578;24.706;2023-05-27T10:21:51;91209.41;;;18.07;68.86
3464;BME280;3551;41.578;24.706;2023-05-27T10:24:18;91203.00;;;18.26;68.06
3464;BME280;3551;41.578;24.706;2023-05-27T10:26:45;91208.03;;;18.37;68.61
3464;BME280;3551;41.578;24.706;2023-05-27T10:29:14;91206.84;;;18.38;69.83
3464;BME280;3551;41.578;24.706;2023-05-27T10:31:44;91209.91;;;18.27;69.40
3464;BME280;3551;41.578;24.706;2023-05-27T10:34:12;91206.91;;;18.13;69.43
3464;BME280;3551;41.578;24.706;2023-05-27T10:36:38;91217.69;;;17.78;70.09
3464;BME280;3551;41.578;24.706;2023-05-27T10:39:05;91208.34;;;17.16;69.66
3464;BME280;3551;41.578;24.706;2023-05-27T10:41:40;91202.56;;;17.30;70.60
3464;BME280;3551;41.578;24.706;2023-05-27T10:44:07;91205.03;;;17.12;70.80
3464;BME280;3551;41.578;24.706;2023-05-27T10:46:39;91195.84;;;17.35;70.58
3464;BME280;3551;41.578;24.706;2023-05-27T10:51:52;91196.16;;;17.12;70.43
3464;BME280;3551;41.578;24.706;2023-05-27T10:54:20;91196.03;;;17.03;70.77
3464;BME280;3551;41.578;24.706;2023-05-27T10:56:50;91195.59;;;17.17;72.88
3464;BME280;3551;41.578;24.706;2023-05-27T10:59:19;91190.44;;;17.35;71.38
3464;BME280;3551;41.578;24.706;2023-05-27T11:01:48;91192.47;;;17.43;70.54
3464;BME280;3551;41.578;24.706;2023-05-27T11:04:16;91193.34;;;17.40;68.51
3464;BME280;3551;41.578;24.706;2023-05-27T11:06:45;91188.69;;;17.41;69.26
3464;BME280;3551;41.578;24.706;2023-05-27T11:09:22;91188.06;;;17.50;70.63
3464;BME280;3551;41.578;24.706;2023-05-27T11:11:49;91187.84;;;17.44;68.54
3464;BME280;3551;41.578;24.706;2023-05-27T11:14:15;91179.63;;;17.60;70.40
3464;BME280;3551;41.578;24.706;2023-05-27T11:16:45;91184.91;;;17.76;71.35
3464;BME280;3551;41.578;24.706;2023-05-27T11:19:14;91183.91;;;17.95;68.54
3464;BME280;3551;41.578;24.706;2023-05-27T11:21:44;91188.25;;;17.93;67.80
3464;BME280;3551;41.578;24.706;2023-05-27T11:24:14;91179.25;;;17.83;65.60
3464;BME280;3551;41.578;24.706;2023-05-27T11:26:42;91180.16;;;17.68;67.37
3464;BME280;3551;41.578;24.706;2023-05-27T11:29:08;91183.19;;;17.70;67.68
3464;BME280;3551;41.578;24.706;2023-05-27T11:31:35;91180.72;;;18.10;66.58
3464;BME280;3551;41.578;24.706;2023-05-27T11:34:10;91182.44;;;18.16;66.90
3464;BME280;3551;41.578;24.706;2023-05-27T11:36:38;91170.78;;;18.07;65.50
3464;BME280;3551;41.578;24.706;2023-05-27T11:39:05;91176.41;;;18.12;64.86
3464;BME280;3551;41.578;24.706;2023-05-27T11:41:33;91178.91;;;18.07;65.75
3464;BME280;3551;41.578;24.706;2023-05-27T11:44:00;91161.63;;;17.91;65.27
3464;BME280;3551;41.578;24.706;2023-05-27T11:46:34;91154.88;;;18.30;67.59
3464;BME280;3551;41.578;24.706;2023-05-27T11:49:02;91169.34;;;18.49;63.13
3464;BME280;3551;41.578;24.706;2023-05-27T11:51:29;91157.53;;;18.21;65.62
3464;BME280;3551;41.578;24.706;2023-05-27T11:53:59;91157.19;;;18.19;66.64
3464;BME280;3551;41.578;24.706;2023-05-27T11:56:26;91151.22;;;18.24;65.22
3464;BME280;3551;41.578;24.706;2023-05-27T11:58:54;91137.38;;;18.22;65.75
3464;BME280;3551;41.578;24.706;2023-05-27T12:01:20;91146.66;;;17.99;66.39
3464;BME280;3551;41.578;24.706;2023-05-27T12:03:47;91156.97;;;18.26;66.44
3464;BME280;3551;41.578;24.706;2023-05-27T12:06:14;91147.84;;;18.33;67.32
3464;BME280;3551;41.578;24.706;2023-05-27T12:08:40;91156.97;;;18.26;62.92
3464;BME280;3551;41.578;24.706;2023-05-27T12:11:09;91136.31;;;18.20;63.38
3464;BME280;3551;41.578;24.706;2023-05-27T12:13:35;91142.28;;;18.36;63.85
3464;BME280;3551;41.578;24.706;2023-05-27T12:16:02;91148.66;;;18.42;62.57
3464;BME280;3551;41.578;24.706;2023-05-27T12:18:30;91133.28;;;18.39;63.99
3464;BME280;3551;41.578;24.706;2023-05-27T12:20:56;91128.56;;;18.31;63.84
3464;BME280;3551;41.578;24.706;2023-05-27T12:23:23;91132.72;;;18.23;63.71
3464;BME280;3551;41.578;24.706;2023-05-27T12:25:50;91124.78;;;18.07;62.65
3464;BME280;3551;41.578;24.706;2023-05-27T12:28:18;91125.59;;;17.94;63.60
3464;BME280;3551;41.578;24.706;2023-05-27T12:30:46;91123.06;;;18.00;63.47
3464;BME280;3551;41.578;24.706;2023-05-27T12:33:13;91123.34;;;18.15;63.41
3464;BME280;3551;41.578;24.706;2023-05-27T12:35:40;91115.97;;;18.37;63.88
3464;BME280;3551;41.578;24.706;2023-05-27T12:38:07;91124.56;;;18.57;64.12
3464;BME280;3551;41.578;24.706;2023-05-27T12:40:34;91114.78;;;18.38;62.53
3464;BME280;3551;41.578;24.706;2023-05-27T12:43:01;91109.97;;;18.54;63.40
3464;BME280;3551;41.578;24.706;2023-05-27T12:45:31;91106.03;;;18.77;63.72
3464;BME280;3551;41.578;24.706;2023-05-27T12:47:58;91102.25;;;18.75;61.64
3464;BME280;3551;41.578;24.706;2023-05-27T12:50:24;91102.97;;;18.66;63.53
3464;BME280;3551;41.578;24.706;2023-05-27T12:52:51;91113.31;;;18.59;60.11
3464;BME280;3551;41.578;24.706;2023-05-27T12:55:19;91100.94;;;18.58;63.45
3464;BME280;3551;41.578;24.706;2023-05-27T12:57:46;91093.88;;;18.60;64.72
3464;BME280;3551;41.578;24.706;2023-05-27T13:00:13;91093.16;;;18.90;60.11
3464;BME280;3551;41.578;24.706;2023-05-27T13:02:42;91092.13;;;18.97;60.14
3464;BME280;3551;41.578;24.706;2023-05-27T13:05:09;91087.41;;;19.19;59.84
3464;BME280;3551;41.578;24.706;2023-05-27T13:07:36;91090.06;;;19.10;62.07
3464;BME280;3551;41.578;24.706;2023-05-27T13:10:04;91084.91;;;18.94;60.59
3464;BME280;3551;41.578;24.706;2023-05-27T13:12:32;91084.28;;;18.68;60.28
3464;BME280;3551;41.578;24.706;2023-05-27T13:14:59;91091.00;;;18.54;61.59
3464;BME280;3551;41.578;24.706;2023-05-27T13:17:29;91077.06;;;18.43;61.35
3464;BME280;3551;41.578;24.706;2023-05-27T13:19:57;91073.09;;;18.57;61.15
3464;BME280;3551;41.578;24.706;2023-05-27T13:22:24;91076.31;;;18.65;62.91
3464;BME280;3551;41.578;24.706;2023-05-27T13:24:51;91072.69;;;18.59;60.77
3464;BME280;3551;41.578;24.706;2023-05-27T13:27:18;91066.66;;;18.42;60.71
3464;BME280;3551;41.578;24.706;2023-05-27T13:29:44;91062.44;;;18.63;60.21
3464;BME280;3551;41.578;24.706;2023-05-27T13:32:11;91052.97;;;18.58;60.49
3464;BME280;3551;41.578;24.706;2023-05-27T13:34:38;91051.78;;;18.68;59.90
3464;BME280;3551;41.578;24.706;2023-05-27T13:37:06;91065.16;;;18.93;58.88
3464;BME280;3551;41.578;24.706;2023-05-27T13:39:33;91059.47;;;18.70;59.85
3464;BME280;3551;41.578;24.706;2023-05-27T13:41:59;91053.88;;;18.64;59.97
3464;BME280;3551;41.578;24.706;2023-05-27T13:44:26;91053.84;;;18.55;60.58
3464;BME280;3551;41.578;24.706;2023-05-27T13:46:53;91058.88;;;18.44;60.77
3464;BME280;3551;41.578;24.706;2023-05-27T13:49:19;91044.53;;;18.34;59.86
3464;BME280;3551;41.578;24.706;2023-05-27T13:51:46;91043.44;;;18.32;62.20
3464;BME280;3551;41.578;24.706;2023-05-27T13:54:14;91043.31;;;18.35;58.84
3464;BME280;3551;41.578;24.706;2023-05-27T13:56:41;91037.03;;;18.38;60.96
3464;BME280;3551;41.578;24.706;2023-05-27T13:59:09;91042.44;;;18.38;59.76
3464;BME280;3551;41.578;24.706;2023-05-27T14:01:35;91038.78;;;18.32;58.91
3464;BME280;3551;41.578;24.706;2023-05-27T14:04:02;91044.41;;;18.38;57.68
3464;BME280;3551;41.578;24.706;2023-05-27T14:06:29;91034.50;;;18.44;59.14
3464;BME280;3551;41.578;24.706;2023-05-27T14:08:56;91036.03;;;18.23;58.69
3464;BME280;3551;41.578;24.706;2023-05-27T14:11:24;91043.50;;;18.19;60.41
3464;BME280;3551;41.578;24.706;2023-05-27T14:13:51;91034.81;;;18.24;60.63
3464;BME280;3551;41.578;24.706;2023-05-27T14:16:19;91032.75;;;18.50;61.82
3464;BME280;3551;41.578;24.706;2023-05-27T14:18:46;91036.31;;;18.47;61.14
3464;BME280;3551;41.578;24.706;2023-05-27T14:21:14;91033.69;;;18.56;60.29
3464;BME280;3551;41.578;24.706;2023-05-27T14:23:40;91032.09;;;18.68;60.72
3464;BME280;3551;41.578;24.706;2023-05-27T14:26:07;91033.59;;;18.69;61.77
3464;BME280;3551;41.578;24.706;2023-05-27T14:28:35;91029.22;;;18.62;60.51
3464;BME280;3551;41.578;24.706;2023-05-27T14:31:02;91035.31;;;18.84;60.05
3464;BME280;3551;41.578;24.706;2023-05-27T14:33:28;91029.84;;;18.75;60.57
3464;BME280;3551;41.578;24.706;2023-05-27T14:35:55;91017.19;;;18.72;63.12
3464;BME280;3551;41.578;24.706;2023-05-27T14:38:22;91023.59;;;18.57;59.61
3464;BME280;3551;41.578;24.706;2023-05-27T14:40:48;91025.88;;;18.58;59.15
3464;BME280;3551;41.578;24.706;2023-05-27T14:43:16;91023.34;;;18.42;59.42
3464;BME280;3551;41.578;24.706;2023-05-27T14:45:44;91018.13;;;18.47;60.75
3464;BME280;3551;41.578;24.706;2023-05-27T14:48:10;91015.03;;;18.36;58.55
3464;BME280;3551;41.578;24.706;2023-05-27T14:50:37;91014.72;;;18.34;60.16
3464;BME280;3551;41.578;24.706;2023-05-27T14:53:03;91018.97;;;18.35;60.42
3464;BME280;3551;41.578;24.706;2023-05-27T14:55:31;91023.22;;;18.45;59.85
3464;BME280;3551;41.578;24.706;2023-05-27T14:58:00;91026.47;;;18.53;60.52
3464;BME280;3551;41.578;24.706;2023-05-27T15:00:27;91011.81;;;18.50;60.63
3464;BME280;3551;41.578;24.706;2023-05-27T15:02:55;91018.31;;;18.31;60.99
3464;BME280;3551;41.578;24.706;2023-05-27T15:05:22;91015.94;;;17.90;60.20
3464;BME280;3551;41.578;24.706;2023-05-27T15:07:48;91015.31;;;17.64;60.82
3464;BME280;3551;41.578;24.706;2023-05-27T15:10:15;91015.38;;;17.73;60.28
3464;BME280;3551;41.578;24.706;2023-05-27T15:12:42;91018.47;;;17.84;60.40
3464;BME280;3551;41.578;24.706;2023-05-27T15:15:10;91017.59;;;17.66;60.95
3464;BME280;3551;41.578;24.706;2023-05-27T15:17:37;91012.22;;;17.75;61.13
3464;BME280;3551;41.578;24.706;2023-05-27T15:20:07;91017.84;;;17.80;60.82
3464;BME280;3551;41.578;24.706;2023-05-27T15:22:34;91013.63;;;17.79;62.08
3464;BME280;3551;41.578;24.706;2023-05-27T15:25:01;91013.94;;;17.81;60.19
3464;BME280;3551;41.578;24.706;2023-05-27T15:27:27;91007.13;;;17.55;60.65
3464;BME280;3551;41.578;24.706;2023-05-27T15:29:54;91006.78;;;17.66;61.27
3464;BME280;3551;41.578;24.706;2023-05-27T15:32:21;91000.41;;;17.47;60.82
3464;BME280;3551;41.578;24.706;2023-05-27T15:34:48;90988.19;;;17.55;59.82
3464;BME280;3551;41.578;24.706;2023-05-27T15:37:16;90983.72;;;17.61;60.92
3464;BME280;3551;41.578;24.706;2023-05-27T15:39:43;90985.41;;;17.80;60.45
3464;BME280;3551;41.578;24.706;2023-05-27T15:42:10;90983.94;;;17.88;60.21
3464;BME280;3551;41.578;24.706;2023-05-27T15:44:38;90984.00;;;17.76;59.21
3464;BME280;3551;41.578;24.706;2023-05-27T15:47:04;90988.72;;;17.63;60.12
3464;BME280;3551;41.578;24.706;2023-05-27T15:49:31;90987.84;;;17.66;60.54
3464;BME280;3551;41.578;24.706;2023-05-27T15:51:58;90982.22;;;17.82;58.96
3464;BME280;3551;41.578;24.706;2023-05-27T15:54:27;90982.19;;;17.94;60.19
3464;BME280;3551;41.578;24.706;2023-05-27T15:56:54;90977.78;;;17.88;60.93
3464;BME280;3551;41.578;24.706;2023-05-27T15:59:20;90993.44;;;17.93;61.62
3464;BME280;3551;41.578;24.706;2023-05-27T16:01:47;90983.16;;;17.66;61.07
3464;BME280;3551;41.578;24.706;2023-05-27T16:04:14;90984.69;;;17.67;58.79
3464;BME280;3551;41.578;24.706;2023-05-27T16:06:40;90972.66;;;17.90;60.07
3464;BME280;3551;41.578;24.706;2023-05-27T16:09:07;90979.97;;;17.80;59.00
3464;BME280;3551;41.578;24.706;2023-05-27T16:11:35;90975.50;;;17.86;59.35
3464;BME280;3551;41.578;24.706;2023-05-27T16:14:02;90984.19;;;17.60;59.89
3464;BME280;3551;41.578;24.706;2023-05-27T16:16:29;90975.06;;;17.66;59.94
3464;BME280;3551;41.578;24.706;2023-05-27T16:18:55;90988.63;;;17.54;60.14
3464;BME280;3551;41.578;24.706;2023-05-27T16:21:22;90983.25;;;17.41;60.44
3464;BME280;3551;41.578;24.706;2023-05-27T16:23:48;90990.69;;;17.50;60.42
3464;BME280;3551;41.578;24.706;2023-05-27T16:26:15;90981.34;;;17.63;61.02
3464;BME280;3551;41.578;24.706;2023-05-27T16:28:43;90983.06;;;17.35;61.18
3464;BME280;3551;41.578;24.706;2023-05-27T16:31:10;90993.22;;;17.31;62.11
3464;BME280;3551;41.578;24.706;2023-05-27T16:33:36;90989.09;;;17.39;62.26
3464;BME280;3551;41.578;24.706;2023-05-27T16:36:03;90994.69;;;17.45;62.08
3464;BME280;3551;41.578;24.706;2023-05-27T16:38:31;90992.41;;;17.22;63.31
3464;BME280;3551;41.578;24.706;2023-05-27T16:40:57;91001.03;;;17.17;64.02
3464;BME280;3551;41.578;24.706;2023-05-27T16:43:24;91000.28;;;17.16;63.57
3464;BME280;3551;41.578;24.706;2023-05-27T16:45:53;90999.28;;;17.23;64.39
3464;BME280;3551;41.578;24.706;2023-05-27T16:48:20;91007.53;;;17.54;62.58
3464;BME280;3551;41.578;24.706;2023-05-27T16:50:46;91005.59;;;17.54;62.93
3464;BME280;3551;41.578;24.706;2023-05-27T16:53:13;91016.84;;;17.65;63.07
3464;BME280;3551;41.578;24.706;2023-05-27T16:55:40;91015.44;;;17.61;63.24
3464;BME280;3551;41.578;24.706;2023-05-27T16:58:06;91022.75;;;17.73;63.25
3464;BME280;3551;41.578;24.706;2023-05-27T17:00:33;91029.34;;;17.72;64.08
3464;BME280;3551;41.578;24.706;2023-05-27T17:03:01;91032.41;;;17.61;64.83
3464;BME280;3551;41.578;24.706;2023-05-27T17:05:28;91037.63;;;17.56;64.75
3464;BME280;3551;41.578;24.706;2023-05-27T17:07:54;91032.91;;;17.69;64.27
3464;BME280;3551;41.578;24.706;2023-05-27T17:10:21;91034.00;;;17.71;64.95
3464;BME280;3551;41.578;24.706;2023-05-27T17:12:48;91031.50;;;17.77;65.67
3464;BME280;3551;41.578;24.706;2023-05-27T17:15:14;91030.34;;;17.65;65.42
3464;BME280;3551;41.578;24.706;2023-05-27T17:17:42;91029.13;;;17.66;64.83
3464;BME280;3551;41.578;24.706;2023-05-27T17:20:10;91029.13;;;17.66;65.76
3464;BME280;3551;41.578;24.706;2023-05-27T17:22:43;91024.06;;;17.68;66.78
3464;BME280;3551;41.578;24.706;2023-05-27T17:25:10;91032.13;;;17.81;67.70
3464;BME280;3551;41.578;24.706;2023-05-27T17:27:37;91039.75;;;17.61;69.05
3464;BME280;3551;41.578;24.706;2023-05-27T17:30:04;91039.56;;;17.42;69.46
3464;BME280;3551;41.578;24.706;2023-05-27T17:32:30;91038.00;;;17.20;68.68
3464;BME280;3551;41.578;24.706;2023-05-27T17:34:58;91037.34;;;17.28;68.08
3464;BME280;3551;41.578;24.706;2023-05-27T17:37:26;91047.63;;;17.21;70.17
3464;BME280;3551;41.578;24.706;2023-05-27T17:39:52;91052.59;;;17.22;70.03
3464;BME280;3551;41.578;24.706;2023-05-27T17:42:19;91058.75;;;17.23;69.78
3464;BME280;3551;41.578;24.706;2023-05-27T17:44:46;91056.25;;;17.28;70.58
3464;BME280;3551;41.578;24.706;2023-05-27T17:47:12;91062.00;;;17.30;70.38
3464;BME280;3551;41.578;24.706;2023-05-27T17:49:39;91058.75;;;17.35;70.73
3464;BME280;3551;41.578;24.706;2023-05-27T17:52:05;91059.28;;;17.30;71.04
3464;BME280;3551;41.578;24.706;2023-05-27T17:54:34;91059.19;;;17.21;70.93
3464;BME280;3551;41.578;24.706;2023-05-27T17:57:00;91067.97;;;17.13;71.29
3464;BME280;3551;41.578;24.706;2023-05-27T17:59:27;91061.56;;;17.19;71.17
3464;BME280;3551;41.578;24.706;2023-05-27T18:01:54;91068.38;;;17.11;72.14
3464;BME280;3551;41.578;24.706;2023-05-27T18:04:20;91065.38;;;16.97;71.38
3464;BME280;3551;41.578;24.706;2023-05-27T18:06:47;91064.50;;;17.00;70.84
3464;BME280;3551;41.578;24.706;2023-05-27T18:09:13;91069.69;;;17.07;70.90
3464;BME280;3551;41.578;24.706;2023-05-27T18:11:42;91077.81;;;17.07;70.75
3464;BME280;3551;41.578;24.706;2023-05-27T18:14:09;91078.25;;;16.93;72.14
3464;BME280;3551;41.578;24.706;2023-05-27T18:16:36;91071.00;;;17.02;72.67
3464;BME280;3551;41.578;24.706;2023-05-27T18:19:02;91080.94;;;16.93;73.76
3464;BME280;3551;41.578;24.706;2023-05-27T18:21:29;91076.72;;;16.92;74.48
3464;BME280;3551;41.578;24.706;2023-05-27T18:23:56;91076.38;;;16.64;75.78
3464;BME280;3551;41.578;24.706;2023-05-27T18:26:22;91077.47;;;16.67;76.67
3464;BME280;3551;41.578;24.706;2023-05-27T18:28:50;91080.81;;;16.71;76.45
3464;BME280;3551;41.578;24.706;2023-05-27T18:31:17;91081.59;;;16.71;76.97
3464;BME280;3551;41.578;24.706;2023-05-27T18:33:44;91084.69;;;16.70;76.29
3464;BME280;3551;41.578;24.706;2023-05-27T18:36:10;91081.78;;;16.64;77.33
3464;BME280;3551;41.578;24.706;2023-05-27T18:38:37;91083.22;;;16.69;76.68
3464;BME280;3551;41.578;24.706;2023-05-27T18:41:04;91089.25;;;16.60;75.99
3464;BME280;3551;41.578;24.706;2023-05-27T18:43:31;91088.66;;;16.53;76.38
3464;BME280;3551;41.578;24.706;2023-05-27T18:45:59;91093.13;;;16.59;76.50
3464;BME280;3551;41.578;24.706;2023-05-27T18:48:27;91088.28;;;16.54;76.63
3464;BME280;3551;41.578;24.706;2023-05-27T18:50:54;91086.34;;;16.55;76.78
3464;BME280;3551;41.578;24.706;2023-05-27T18:53:21;91085.03;;;16.59;76.73
3464;BME280;3551;41.578;24.706;2023-05-27T18:55:47;91082.50;;;16.52;77.43
3464;BME280;3551;41.578;24.706;2023-05-27T18:58:14;91092.47;;;16.55;77.25
3464;BME280;3551;41.578;24.706;2023-05-27T19:00:41;91086.97;;;16.59;77.67
3464;BME280;3551;41.578;24.706;2023-05-27T19:03:09;91073.56;;;16.55;77.82
3464;BME280;3551;41.578;24.706;2023-05-27T19:05:36;91075.84;;;16.57;78.35